createdAt,value
2023-05-12T00:01:31.982Z,8.65
2023-05-12T00:06:33.806Z,7.25
2023-05-12T00:11:37.810Z,6.57
2023-05-12T00:16:39.560Z,7.25
2023-05-12T00:21:41.570Z,7.78
2023-05-12T00:26:43.308Z,7.05
2023-05-12T00:31:45.087Z,7.38
2023-05-12T00:36:46.926Z,6.40
2023-05-12T00:41:50.132Z,6.45
2023-05-12T00:46:53.210Z,6.45
2023-05-12T00:51:56.050Z,6.05
2023-05-12T00:56:57.993Z,5.65
2023-05-12T01:01:59.966Z,5.75
2023-05-12T01:07:10.028Z,5.65
2023-05-12T01:12:12.866Z,4.38
2023-05-12T01:17:19.105Z,5.15
2023-05-12T01:22:21.294Z,5.95
2023-05-12T01:27:25.846Z,4.88
2023-05-12T01:32:28.204Z,5.53
2023-05-12T01:37:30.376Z,6.07
2023-05-12T01:42:33.083Z,9.63
2023-05-12T01:47:35.136Z,6.25
2023-05-12T01:52:43.470Z,6.50
2023-05-12T01:57:47.656Z,4.50
2023-05-12T02:02:50.091Z,6.85
2023-05-12T02:07:52.202Z,5.70
2023-05-12T02:12:54.317Z,4.78
2023-05-12T02:17:57.214Z,6.05
2023-05-12T02:23:00.897Z,4.53
2023-05-12T02:28:08.133Z,3.92
2023-05-12T02:33:10.168Z,4.10
2023-05-12T02:38:12.675Z,5.53
2023-05-12T02:43:14.776Z,4.47
2023-05-12T02:48:17.300Z,6.68
2023-05-12T02:53:19.260Z,6.25
2023-05-12T02:58:21.095Z,6.53
2023-05-12T03:03:23.090Z,5.90
2023-05-12T03:08:25.012Z,6.90
2023-05-12T03:13:26.788Z,7.22
2023-05-12T03:18:29.088Z,9.55
2023-05-12T03:23:31.463Z,9.32
2023-05-12T03:28:33.246Z,7.43
2023-05-12T03:33:34.977Z,7.38
2023-05-12T03:38:37.212Z,10.60
2023-05-12T03:43:39.151Z,9.57
2023-05-12T03:48:41.156Z,8.27
2023-05-12T03:53:45.380Z,11.27
2023-05-12T03:58:48.158Z,8.23
2023-05-12T04:03:51.562Z,7.83
2023-05-12T04:08:53.480Z,6.90
2023-05-12T04:13:55.230Z,9.65
2023-05-12T04:18:57.553Z,7.72
2023-05-12T04:23:59.489Z,7.40
2023-05-12T04:29:04.811Z,9.18
2023-05-12T04:34:06.793Z,12.07
2023-05-12T04:39:10.070Z,9.93
2023-05-12T04:44:12.281Z,9.80
2023-05-12T04:49:15.298Z,8.40
2023-05-12T04:54:17.266Z,7.75
2023-05-12T04:59:19.146Z,8.88
2023-05-12T05:04:23.181Z,8.73
2023-05-12T05:09:25.280Z,6.88
2023-05-12T05:14:27.355Z,10.10
2023-05-12T05:24:37.208Z,7.10
2023-05-12T05:29:39.016Z,7.45
2023-05-12T05:34:41.749Z,7.35
2023-05-12T05:39:43.603Z,9.13
2023-05-12T05:44:45.418Z,7.40
2023-05-12T05:49:48.038Z,8.50
2023-05-12T05:54:50.538Z,9.00
2023-05-12T05:59:54.201Z,10.35
2023-05-12T06:04:56.183Z,10.48
2023-05-12T06:09:58.055Z,11.27
2023-05-12T06:14:59.795Z,11.80
2023-05-12T06:20:01.760Z,9.00
2023-05-12T06:25:03.852Z,8.00
2023-05-12T06:30:07.599Z,7.20
2023-05-12T06:35:09.746Z,6.55
2023-05-12T06:40:11.685Z,7.45
2023-05-12T06:45:13.604Z,6.72
2023-05-12T06:50:17.045Z,9.48
2023-05-12T06:55:20.717Z,8.07
2023-05-12T07:00:26.411Z,9.23
2023-05-12T07:05:28.254Z,6.85
2023-05-12T07:10:30.133Z,6.80
2023-05-12T07:15:32.914Z,5.72
2023-05-12T07:20:34.932Z,7.20
2023-05-12T07:25:36.750Z,7.75
2023-05-12T07:30:39.024Z,5.57
2023-05-12T07:35:40.821Z,6.30
2023-05-12T07:40:43.076Z,6.28
2023-05-12T07:45:45.723Z,4.50
2023-05-12T07:50:47.566Z,5.88
2023-05-12T07:55:49.338Z,5.20
2023-05-12T08:00:51.124Z,3.50
2023-05-12T08:05:52.918Z,5.40
2023-05-12T08:10:54.656Z,6.63
2023-05-12T08:15:56.394Z,4.25
2023-05-12T08:20:58.402Z,7.25
2023-05-12T08:26:00.162Z,6.63
2023-05-12T08:31:04.821Z,4.22
2023-05-12T08:36:07.068Z,6.05
2023-05-12T08:41:23.005Z,4.95
2023-05-12T08:46:26.715Z,5.85
2023-05-12T08:51:31.550Z,5.70
2023-05-12T09:01:42.969Z,4.07
2023-05-12T09:06:45.914Z,7.22
2023-05-12T09:11:49.908Z,3.50
2023-05-12T09:21:56.107Z,3.78
2023-05-12T09:26:57.866Z,3.42
2023-05-12T09:32:02.319Z,5.25
2023-05-12T09:37:06.564Z,3.90
2023-05-12T09:42:12.836Z,3.53
2023-05-12T09:47:15.975Z,4.45
2023-05-12T09:52:21.409Z,3.80
2023-05-12T09:57:25.643Z,2.70
2023-05-12T10:02:28.436Z,3.22
2023-05-12T10:07:31.317Z,5.28
2023-05-12T10:17:39.666Z,4.40
2023-05-12T10:22:42.075Z,2.55
2023-05-12T10:27:44.875Z,4.35
2023-05-12T10:32:46.876Z,3.58
2023-05-12T10:37:49.751Z,2.78
2023-05-12T10:42:52.747Z,2.17
2023-05-12T10:48:08.984Z,3.40
2023-05-12T10:53:11.556Z,4.88
2023-05-12T10:58:14.426Z,4.10
2023-05-12T11:03:23.838Z,1.80
2023-05-12T11:08:28.341Z,3.58
2023-05-12T11:13:30.443Z,2.97
2023-05-12T11:18:32.210Z,4.63
2023-05-12T11:23:33.979Z,3.92
2023-05-12T11:28:41.779Z,3.35
2023-05-12T11:33:43.553Z,2.08
2023-05-12T11:38:51.621Z,1.88
2023-05-12T11:43:53.543Z,3.15
2023-05-12T11:48:59.862Z,1.75
2023-05-12T11:54:01.836Z,1.48
2023-05-12T11:59:04.072Z,2.30
2023-05-12T12:04:06.270Z,2.88
2023-05-12T12:09:08.667Z,3.10
2023-05-12T12:14:10.529Z,4.55
2023-05-12T12:19:12.432Z,3.70
2023-05-12T12:24:14.619Z,2.10
2023-05-12T12:29:17.220Z,3.60
2023-05-12T12:34:19.220Z,3.08
2023-05-12T12:39:23.211Z,2.85
2023-05-12T12:44:24.984Z,3.28
2023-05-12T12:49:26.904Z,2.92
2023-05-12T12:54:28.728Z,2.00
2023-05-12T12:59:30.486Z,2.42
2023-05-12T13:04:32.273Z,3.33
2023-05-12T13:09:34.025Z,2.70
2023-05-12T13:14:35.873Z,3.90
2023-05-12T13:19:38.340Z,3.67
2023-05-12T13:24:40.174Z,2.38
2023-05-12T13:29:42.337Z,2.38
2023-05-12T13:34:44.305Z,3.15
2023-05-12T13:39:46.039Z,4.65
2023-05-12T13:44:48.765Z,2.45
2023-05-12T13:49:50.497Z,3.60
2023-05-12T13:54:52.469Z,5.88
2023-05-12T13:59:57.706Z,2.20
2023-05-12T14:04:59.565Z,2.25
2023-05-12T14:10:01.754Z,3.80
2023-05-12T14:15:19.934Z,2.38
2023-05-12T14:20:25.857Z,3.22
2023-05-12T14:25:27.642Z,2.88
2023-05-12T14:30:29.836Z,4.43
2023-05-12T14:35:32.115Z,2.80
2023-05-12T14:40:33.884Z,2.83
2023-05-12T14:45:35.662Z,4.28
2023-05-12T14:50:38.052Z,3.83
2023-05-12T14:55:39.995Z,2.40
2023-05-12T15:00:41.767Z,3.22
2023-05-12T15:06:01.769Z,2.42
2023-05-12T15:11:05.353Z,2.97
2023-05-12T15:16:08.258Z,3.30
2023-05-12T15:21:10.122Z,2.20
2023-05-12T15:31:16.677Z,2.58
2023-05-12T15:36:18.633Z,3.35
2023-05-12T15:41:20.534Z,2.72
2023-05-12T15:46:22.750Z,3.03
2023-05-12T15:51:24.611Z,19.35
2023-05-12T15:56:26.670Z,2.67
2023-05-12T16:01:28.783Z,3.95
2023-05-12T16:06:30.638Z,3.58
2023-05-12T16:11:32.957Z,5.28
2023-05-12T16:16:34.895Z,3.20
2023-05-12T16:21:36.693Z,2.65
2023-05-12T16:26:38.624Z,2.65
2023-05-12T16:31:40.818Z,2.47
2023-05-12T16:36:42.619Z,3.83
2023-05-12T16:41:44.710Z,3.53
2023-05-12T16:46:46.570Z,2.92
2023-05-12T16:51:48.421Z,2.17
2023-05-12T16:56:50.218Z,2.58
2023-05-12T17:01:51.978Z,2.60
2023-05-12T17:06:53.742Z,2.90
2023-05-12T17:11:55.568Z,3.83
2023-05-12T17:16:57.734Z,3.28
2023-05-12T17:21:59.513Z,2.45
2023-05-12T17:27:01.414Z,4.70
2023-05-12T17:32:03.444Z,4.18
2023-05-12T17:37:06.068Z,5.30
2023-05-12T17:42:08.107Z,6.18
2023-05-12T17:47:14.143Z,3.80
2023-05-12T17:52:16.168Z,3.38
2023-05-12T17:57:18.022Z,3.50
2023-05-12T18:02:19.970Z,3.78
2023-05-12T18:07:22.418Z,4.18
2023-05-12T18:12:24.426Z,5.30
2023-05-12T18:17:27.753Z,4.03
2023-05-12T18:22:29.946Z,4.50
2023-05-12T18:27:31.737Z,4.03
2023-05-12T18:32:33.578Z,4.88
2023-05-12T18:37:35.357Z,2.80
2023-05-12T18:42:37.266Z,4.30
2023-05-12T18:47:39.437Z,2.95
2023-05-12T18:52:42.496Z,5.80
2023-05-12T18:57:44.301Z,3.78
2023-05-12T19:02:46.694Z,5.30
2023-05-12T19:07:48.486Z,3.88
2023-05-12T19:12:51.013Z,4.40
2023-05-12T19:17:53.469Z,5.82
2023-05-12T19:22:55.350Z,5.07
2023-05-12T19:27:57.080Z,3.58
2023-05-12T19:32:58.920Z,4.40
2023-05-12T19:38:00.760Z,4.00
2023-05-12T19:43:05.011Z,4.05
2023-05-12T19:53:09.541Z,3.40
2023-05-12T19:58:11.420Z,5.28
2023-05-12T20:03:13.303Z,5.28
2023-05-12T20:08:15.245Z,3.88
2023-05-12T20:13:17.146Z,3.95
2023-05-12T20:18:18.956Z,4.10
2023-05-12T20:23:20.754Z,3.83
2023-05-12T20:28:24.124Z,4.78
2023-05-12T20:33:25.964Z,5.40
2023-05-12T20:38:27.920Z,6.45
2023-05-12T20:43:29.817Z,3.95
2023-05-12T20:48:32.532Z,3.60
2023-05-12T20:53:34.858Z,3.47
2023-05-12T20:58:36.631Z,5.43
2023-05-12T21:03:38.419Z,3.30
2023-05-12T21:08:40.215Z,4.78
2023-05-12T21:13:42.403Z,5.13
2023-05-12T21:18:44.525Z,4.07
2023-05-12T21:23:46.388Z,5.05
2023-05-12T21:28:48.205Z,4.18
2023-05-12T21:33:50.370Z,7.00
2023-05-12T21:38:52.124Z,5.60
2023-05-12T21:43:53.859Z,3.60
2023-05-12T21:48:55.586Z,3.42
2023-05-12T21:53:57.333Z,4.32
2023-05-12T21:58:59.103Z,3.47
2023-05-12T22:04:00.857Z,4.88
2023-05-12T22:09:02.970Z,4.65
2023-05-12T22:14:04.837Z,5.07
2023-05-12T22:19:06.696Z,6.55
2023-05-12T22:24:09.770Z,9.35
2023-05-12T22:29:11.716Z,6.32
2023-05-12T22:34:13.566Z,6.25
2023-05-12T22:39:15.593Z,6.47
2023-05-12T22:44:17.350Z,5.38
2023-05-12T22:49:19.194Z,8.23
2023-05-12T22:54:20.997Z,7.13
2023-05-12T22:59:22.755Z,8.82
2023-05-12T23:04:24.945Z,6.47
2023-05-12T23:09:26.852Z,5.65
2023-05-12T23:14:28.705Z,5.13
2023-05-12T23:19:30.453Z,5.18
2023-05-12T23:24:32.447Z,5.18
2023-05-12T23:29:34.463Z,5.32
2023-05-12T23:34:40.150Z,6.88
2023-05-12T23:39:41.890Z,5.13
2023-05-12T23:44:43.649Z,3.88
2023-05-12T23:49:45.388Z,5.28
2023-05-12T23:54:47.151Z,5.50
2023-05-12T23:59:48.918Z,4.07
